sensor_id;sensor_type;location;lat;lon;timestamp;P1;durP1;ratioP1;P2;durP2;ratioP2
21426;SDS011;10874;49.452;11.050;2023-12-20T00:01:33;7.30;;;4.57;;
21426;SDS011;10874;49.452;11.050;2023-12-20T00:04:01;4.97;;;4.47;;
21426;SDS011;10874;49.452;11.050;2023-12-20T00:06:27;5.13;;;4.20;;
21426;SDS011;10874;49.452;11.050;2023-12-20T00:08:54;5.70;;;4.37;;
21426;SDS011;10874;49.452;11.050;2023-12-20T00:11:22;6.00;;;4.73;;
21426;SDS011;10874;49.452;11.050;2023-12-20T00:13:49;4.87;;;3.90;;
21426;SDS011;10874;49.452;11.050;2023-12-20T00:16:17;7.17;;;4.70;;
21426;SDS011;10874;49.452;11.050;2023-12-20T00:18:44;5.17;;;4.30;;
21426;SDS011;10874;49.452;11.050;2023-12-20T00:21:11;7.50;;;4.30;;
21426;SDS011;10874;49.452;11.050;2023-12-20T00:23:38;4.77;;;3.97;;
21426;SDS011;10874;49.452;11.050;2023-12-20T00:26:05;6.10;;;4.33;;
21426;SDS011;10874;49.452;11.050;2023-12-20T00:28:31;5.43;;;3.90;;
21426;SDS011;10874;49.452;11.050;2023-12-20T00:30:59;4.70;;;4.17;;
21426;SDS011;10874;49.452;11.050;2023-12-20T00:33:26;6.90;;;4.13;;
21426;SDS011;10874;49.452;11.050;2023-12-20T00:35:53;7.03;;;4.63;;
21426;SDS011;10874;49.452;11.050;2023-12-20T00:38:19;6.87;;;4.53;;
21426;SDS011;10874;49.452;11.050;2023-12-20T00:40:46;4.70;;;3.63;;
21426;SDS011;10874;49.452;11.050;2023-12-20T00:43:13;4.33;;;3.60;;
21426;SDS011;10874;49.452;11.050;2023-12-20T00:45:40;4.47;;;3.67;;
21426;SDS011;10874;49.452;11.050;2023-12-20T00:48:07;4.73;;;3.77;;
21426;SDS011;10874;49.452;11.050;2023-12-20T00:50:33;5.53;;;3.97;;
21426;SDS011;10874;49.452;11.050;2023-12-20T00:53:01;5.97;;;4.27;;
21426;SDS011;10874;49.452;11.050;2023-12-20T00:55:27;6.33;;;3.80;;
21426;SDS011;10874;49.452;11.050;2023-12-20T00:57:54;6.53;;;3.80;;
21426;SDS011;10874;49.452;11.050;2023-12-20T01:00:21;5.07;;;4.43;;
21426;SDS011;10874;49.452;11.050;2023-12-20T01:02:48;5.20;;;3.73;;
21426;SDS011;10874;49.452;11.050;2023-12-20T01:05:16;4.20;;;3.80;;
21426;SDS011;10874;49.452;11.050;2023-12-20T01:07:44;5.10;;;3.83;;
21426;SDS011;10874;49.452;11.050;2023-12-20T01:10:11;76.57;;;46.27;;
21426;SDS011;10874;49.452;11.050;2023-12-20T01:12:38;20.50;;;13.00;;
21426;SDS011;10874;49.452;11.050;2023-12-20T01:15:04;45.13;;;28.27;;
21426;SDS011;10874;49.452;11.050;2023-12-20T01:17:31;7.10;;;5.40;;
21426;SDS011;10874;49.452;11.050;2023-12-20T01:19:58;3.83;;;3.40;;
21426;SDS011;10874;49.452;11.050;2023-12-20T01:22:25;4.03;;;3.03;;
21426;SDS011;10874;49.452;11.050;2023-12-20T01:24:52;5.37;;;3.27;;
21426;SDS011;10874;49.452;11.050;2023-12-20T01:27:19;5.10;;;3.37;;
21426;SDS011;10874;49.452;11.050;2023-12-20T01:29:45;2.83;;;2.50;;
21426;SDS011;10874;49.452;11.050;2023-12-20T01:32:12;2.30;;;2.10;;
21426;SDS011;10874;49.452;11.050;2023-12-20T01:34:39;3.40;;;2.43;;
21426;SDS011;10874;49.452;11.050;2023-12-20T01:37:06;2.60;;;1.87;;
21426;SDS011;10874;49.452;11.050;2023-12-20T01:39:33;1.83;;;1.73;;
21426;SDS011;10874;49.452;11.050;2023-12-20T01:41:59;1.70;;;1.50;;
21426;SDS011;10874;49.452;11.050;2023-12-20T01:44:26;2.40;;;1.60;;
21426;SDS011;10874;49.452;11.050;2023-12-20T01:46:53;1.60;;;1.50;;
21426;SDS011;10874;49.452;11.050;2023-12-20T01:49:20;1.50;;;1.37;;
21426;SDS011;10874;49.452;11.050;2023-12-20T01:51:49;2.60;;;1.50;;
21426;SDS011;10874;49.452;11.050;2023-12-20T01:54:16;1.70;;;1.60;;
21426;SDS011;10874;49.452;11.050;2023-12-20T01:56:44;4.10;;;1.67;;
21426;SDS011;10874;49.452;11.050;2023-12-20T01:59:10;1.80;;;1.50;;
21426;SDS011;10874;49.452;11.050;2023-12-20T02:01:37;1.50;;;1.40;;
21426;SDS011;10874;49.452;11.050;2023-12-20T02:04:04;1.70;;;1.53;;
21426;SDS011;10874;49.452;11.050;2023-12-20T02:06:31;1.53;;;1.43;;
21426;SDS011;10874;49.452;11.050;2023-12-20T02:09:00;1.20;;;1.10;;
21426;SDS011;10874;49.452;11.050;2023-12-20T02:11:27;1.83;;;0.97;;
21426;SDS011;10874;49.452;11.050;2023-12-20T02:13:54;1.23;;;1.10;;
21426;SDS011;10874;49.452;11.050;2023-12-20T02:16:21;1.10;;;1.00;;
21426;SDS011;10874;49.452;11.050;2023-12-20T02:18:48;1.27;;;1.17;;
21426;SDS011;10874;49.452;11.050;2023-12-20T02:21:16;1.10;;;1.00;;
21426;SDS011;10874;49.452;11.050;2023-12-20T02:23:42;1.73;;;0.90;;
21426;SDS011;10874;49.452;11.050;2023-12-20T02:26:09;1.43;;;0.90;;
21426;SDS011;10874;49.452;11.050;2023-12-20T02:28:36;2.53;;;1.20;;
21426;SDS011;10874;49.452;11.050;2023-12-20T02:31:03;1.53;;;1.03;;
21426;SDS011;10874;49.452;11.050;2023-12-20T02:33:30;1.40;;;0.83;;
21426;SDS011;10874;49.452;11.050;2023-12-20T02:35:57;0.80;;;0.80;;
21426;SDS011;10874;49.452;11.050;2023-12-20T02:38:23;0.70;;;0.70;;
21426;SDS011;10874;49.452;11.050;2023-12-20T02:40:50;0.80;;;0.80;;
21426;SDS011;10874;49.452;11.050;2023-12-20T02:43:17;0.97;;;0.87;;
21426;SDS011;10874;49.452;11.050;2023-12-20T02:45:44;0.80;;;0.80;;
21426;SDS011;10874;49.452;11.050;2023-12-20T02:48:10;0.90;;;0.73;;
21426;SDS011;10874;49.452;11.050;2023-12-20T02:50:37;0.70;;;0.70;;
21426;SDS011;10874;49.452;11.050;2023-12-20T02:53:04;0.80;;;0.80;;
21426;SDS011;10874;49.452;11.050;2023-12-20T02:55:31;0.77;;;0.77;;
21426;SDS011;10874;49.452;11.050;2023-12-20T02:57:57;0.90;;;0.90;;
21426;SDS011;10874;49.452;11.050;2023-12-20T03:00:24;0.93;;;0.90;;
21426;SDS011;10874;49.452;11.050;2023-12-20T03:02:52;1.13;;;0.80;;
21426;SDS011;10874;49.452;11.050;2023-12-20T03:05:18;1.37;;;0.80;;
21426;SDS011;10874;49.452;11.050;2023-12-20T03:07:45;0.70;;;0.70;;
21426;SDS011;10874;49.452;11.050;2023-12-20T03:10:15;0.67;;;0.67;;
21426;SDS011;10874;49.452;11.050;2023-12-20T03:12:52;0.60;;;0.60;;
21426;SDS011;10874;49.452;11.050;2023-12-20T03:15:19;0.60;;;0.60;;
21426;SDS011;10874;49.452;11.050;2023-12-20T03:17:46;0.70;;;0.70;;
21426;SDS011;10874;49.452;11.050;2023-12-20T03:20:13;0.70;;;0.70;;
21426;SDS011;10874;49.452;11.050;2023-12-20T03:22:40;1.37;;;0.90;;
21426;SDS011;10874;49.452;11.050;2023-12-20T03:25:07;0.70;;;0.70;;
21426;SDS011;10874;49.452;11.050;2023-12-20T03:27:36;0.70;;;0.70;;
21426;SDS011;10874;49.452;11.050;2023-12-20T03:30:03;0.67;;;0.67;;
21426;SDS011;10874;49.452;11.050;2023-12-20T03:32:30;0.77;;;0.77;;
21426;SDS011;10874;49.452;11.050;2023-12-20T03:34:57;0.87;;;0.80;;
21426;SDS011;10874;49.452;11.050;2023-12-20T03:37:24;1.67;;;0.73;;
21426;SDS011;10874;49.452;11.050;2023-12-20T03:39:50;1.00;;;0.90;;
21426;SDS011;10874;49.452;11.050;2023-12-20T03:42:17;2.20;;;0.90;;
21426;SDS011;10874;49.452;11.050;2023-12-20T03:44:44;0.97;;;0.80;;
21426;SDS011;10874;49.452;11.050;2023-12-20T03:47:11;0.90;;;0.90;;
21426;SDS011;10874;49.452;11.050;2023-12-20T03:49:37;2.73;;;0.80;;
21426;SDS011;10874;49.452;11.050;2023-12-20T03:52:05;0.80;;;0.77;;
21426;SDS011;10874;49.452;11.050;2023-12-20T03:54:32;1.57;;;0.90;;
21426;SDS011;10874;49.452;11.050;2023-12-20T03:56:59;2.20;;;1.67;;
21426;SDS011;10874;49.452;11.050;2023-12-20T03:59:26;2.60;;;2.23;;
21426;SDS011;10874;49.452;11.050;2023-12-20T04:01:52;2.20;;;1.63;;
21426;SDS011;10874;49.452;11.050;2023-12-20T04:04:19;1.47;;;1.20;;
21426;SDS011;10874;49.452;11.050;2023-12-20T04:06:46;1.00;;;0.90;;
21426;SDS011;10874;49.452;11.050;2023-12-20T04:09:13;0.80;;;0.80;;
21426;SDS011;10874;49.452;11.050;2023-12-20T04:11:40;1.93;;;1.10;;
21426;SDS011;10874;49.452;11.050;2023-12-20T04:14:06;3.87;;;1.80;;
21426;SDS011;10874;49.452;11.050;2023-12-20T04:16:34;3.03;;;1.93;;
21426;SDS011;10874;49.452;11.050;2023-12-20T04:19:01;1.63;;;1.53;;
21426;SDS011;10874;49.452;11.050;2023-12-20T04:21:28;2.57;;;2.37;;
21426;SDS011;10874;49.452;11.050;2023-12-20T04:23:54;5.27;;;3.53;;
21426;SDS011;10874;49.452;11.050;2023-12-20T04:26:21;4.47;;;3.90;;
21426;SDS011;10874;49.452;11.050;2023-12-20T04:28:48;4.70;;;3.00;;
21426;SDS011;10874;49.452;11.050;2023-12-20T04:31:16;2.87;;;2.13;;
21426;SDS011;10874;49.452;11.050;2023-12-20T04:33:43;6.87;;;3.83;;
21426;SDS011;10874;49.452;11.050;2023-12-20T04:36:10;8.47;;;3.67;;
21426;SDS011;10874;49.452;11.050;2023-12-20T04:38:37;17.00;;;6.43;;
21426;SDS011;10874;49.452;11.050;2023-12-20T04:41:04;14.30;;;6.33;;
21426;SDS011;10874;49.452;11.050;2023-12-20T04:43:30;13.47;;;5.00;;
21426;SDS011;10874;49.452;11.050;2023-12-20T04:45:57;9.20;;;4.07;;
21426;SDS011;10874;49.452;11.050;2023-12-20T04:48:24;17.10;;;5.73;;
21426;SDS011;10874;49.452;11.050;2023-12-20T04:50:51;31.70;;;10.27;;
21426;SDS011;10874;49.452;11.050;2023-12-20T04:53:17;26.47;;;9.07;;
21426;SDS011;10874;49.452;11.050;2023-12-20T04:55:45;18.70;;;7.47;;
21426;SDS011;10874;49.452;11.050;2023-12-20T04:58:11;16.40;;;6.40;;
21426;SDS011;10874;49.452;11.050;2023-12-20T05:00:38;35.07;;;13.00;;
21426;SDS011;10874;49.452;11.050;2023-12-20T05:03:05;68.43;;;40.53;;
21426;SDS011;10874;49.452;11.050;2023-12-20T05:05:32;44.43;;;27.77;;
21426;SDS011;10874;49.452;11.050;2023-12-20T05:08:00;62.40;;;35.60;;
21426;SDS011;10874;49.452;11.050;2023-12-20T05:10:26;56.53;;;32.03;;
21426;SDS011;10874;49.452;11.050;2023-12-20T05:12:54;76.83;;;38.50;;
21426;SDS011;10874;49.452;11.050;2023-12-20T05:15:21;51.83;;;26.23;;
21426;SDS011;10874;49.452;11.050;2023-12-20T05:17:48;36.73;;;17.73;;
21426;SDS011;10874;49.452;11.050;2023-12-20T05:20:15;23.97;;;10.43;;
21426;SDS011;10874;49.452;11.050;2023-12-20T05:22:42;19.57;;;9.20;;
21426;SDS011;10874;49.452;11.050;2023-12-20T05:25:09;18.60;;;8.17;;
21426;SDS011;10874;49.452;11.050;2023-12-20T05:27:36;32.50;;;13.53;;
21426;SDS011;10874;49.452;11.050;2023-12-20T05:30:03;26.13;;;10.93;;
21426;SDS011;10874;49.452;11.050;2023-12-20T05:32:31;16.30;;;6.87;;
21426;SDS011;10874;49.452;11.050;2023-12-20T05:34:58;11.50;;;5.03;;
21426;SDS011;10874;49.452;11.050;2023-12-20T05:37:25;9.13;;;4.33;;
21426;SDS011;10874;49.452;11.050;2023-12-20T05:39:52;5.90;;;2.87;;
21426;SDS011;10874;49.452;11.050;2023-12-20T05:42:19;4.07;;;2.37;;
21426;SDS011;10874;49.452;11.050;2023-12-20T05:44:46;3.83;;;2.07;;
21426;SDS011;10874;49.452;11.050;2023-12-20T05:47:12;2.27;;;1.83;;
21426;SDS011;10874;49.452;11.050;2023-12-20T05:49:39;3.10;;;1.93;;
21426;SDS011;10874;49.452;11.050;2023-12-20T05:52:06;3.60;;;2.33;;
21426;SDS011;10874;49.452;11.050;2023-12-20T05:54:33;3.63;;;1.77;;
21426;SDS011;10874;49.452;11.050;2023-12-20T05:57:00;1.67;;;1.53;;
21426;SDS011;10874;49.452;11.050;2023-12-20T05:59:27;7.43;;;2.83;;
21426;SDS011;10874;49.452;11.050;2023-12-20T06:01:54;4.33;;;2.87;;
21426;SDS011;10874;49.452;11.050;2023-12-20T06:04:21;3.77;;;2.30;;
21426;SDS011;10874;49.452;11.050;2023-12-20T06:06:49;2.00;;;1.70;;
21426;SDS011;10874;49.452;11.050;2023-12-20T06:09:16;2.67;;;1.60;;
21426;SDS011;10874;49.452;11.050;2023-12-20T06:11:43;2.30;;;1.73;;
21426;SDS011;10874;49.452;11.050;2023-12-20T06:14:10;1.77;;;1.50;;
21426;SDS011;10874;49.452;11.050;2023-12-20T06:16:36;1.43;;;1.23;;
21426;SDS011;10874;49.452;11.050;2023-12-20T06:19:03;3.17;;;1.80;;
21426;SDS011;10874;49.452;11.050;2023-12-20T06:21:30;2.03;;;1.53;;
21426;SDS011;10874;49.452;11.050;2023-12-20T06:23:58;3.93;;;2.27;;
21426;SDS011;10874;49.452;11.050;2023-12-20T06:26:25;4.80;;;2.17;;
21426;SDS011;10874;49.452;11.050;2023-12-20T06:28:51;1.60;;;1.50;;
21426;SDS011;10874;49.452;11.050;2023-12-20T06:31:18;2.93;;;1.80;;
21426;SDS011;10874;49.452;11.050;2023-12-20T06:33:45;2.00;;;1.80;;
21426;SDS011;10874;49.452;11.050;2023-12-20T06:36:12;3.23;;;1.97;;
21426;SDS011;10874;49.452;11.050;2023-12-20T06:38:42;2.70;;;2.10;;
21426;SDS011;10874;49.452;11.050;2023-12-20T06:41:12;2.53;;;2.23;;
21426;SDS011;10874;49.452;11.050;2023-12-20T06:43:39;4.00;;;2.37;;
21426;SDS011;10874;49.452;11.050;2023-12-20T06:46:15;2.60;;;2.30;;
21426;SDS011;10874;49.452;11.050;2023-12-20T06:48:43;3.00;;;2.33;;
21426;SDS011;10874;49.452;11.050;2023-12-20T06:51:16;2.70;;;2.50;;
21426;SDS011;10874;49.452;11.050;2023-12-20T06:53:43;4.27;;;2.73;;
21426;SDS011;10874;49.452;11.050;2023-12-20T06:56:10;2.23;;;2.03;;
21426;SDS011;10874;49.452;11.050;2023-12-20T06:58:41;6.93;;;4.23;;
21426;SDS011;10874;49.452;11.050;2023-12-20T07:01:12;6.50;;;3.90;;
21426;SDS011;10874;49.452;11.050;2023-12-20T07:03:39;4.77;;;2.60;;
21426;SDS011;10874;49.452;11.050;2023-12-20T07:06:07;2.10;;;1.57;;
21426;SDS011;10874;49.452;11.050;2023-12-20T07:08:34;1.67;;;1.57;;
21426;SDS011;10874;49.452;11.050;2023-12-20T07:11:01;1.70;;;1.60;;
21426;SDS011;10874;49.452;11.050;2023-12-20T07:13:28;1.80;;;1.70;;
21426;SDS011;10874;49.452;11.050;2023-12-20T07:15:54;2.45;;;2.20;;
21426;SDS011;10874;49.452;11.050;2023-12-20T07:18:21;1.70;;;1.60;;
21426;SDS011;10874;49.452;11.050;2023-12-20T07:20:48;1.80;;;1.70;;
21426;SDS011;10874;49.452;11.050;2023-12-20T07:23:15;2.60;;;2.40;;
21426;SDS011;10874;49.452;11.050;2023-12-20T07:25:41;4.33;;;2.23;;
21426;SDS011;10874;49.452;11.050;2023-12-20T07:28:08;2.90;;;2.17;;
21426;SDS011;10874;49.452;11.050;2023-12-20T07:30:35;2.87;;;2.27;;
21426;SDS011;10874;49.452;11.050;2023-12-20T07:33:02;2.63;;;2.43;;
21426;SDS011;10874;49.452;11.050;2023-12-20T07:35:29;2.50;;;2.30;;
21426;SDS011;10874;49.452;11.050;2023-12-20T07:37:56;2.87;;;2.63;;
21426;SDS011;10874;49.452;11.050;2023-12-20T07:40:23;2.83;;;2.57;;
21426;SDS011;10874;49.452;11.050;2023-12-20T07:42:51;4.20;;;3.50;;
21426;SDS011;10874;49.452;11.050;2023-12-20T07:45:17;4.03;;;3.63;;
21426;SDS011;10874;49.452;11.050;2023-12-20T07:47:44;3.80;;;3.13;;
21426;SDS011;10874;49.452;11.050;2023-12-20T07:50:11;2.77;;;2.57;;
21426;SDS011;10874;49.452;11.050;2023-12-20T07:52:38;3.27;;;2.70;;
21426;SDS011;10874;49.452;11.050;2023-12-20T07:55:05;2.87;;;2.67;;
21426;SDS011;10874;49.452;11.050;2023-12-20T07:57:32;3.37;;;2.77;;
21426;SDS011;10874;49.452;11.050;2023-12-20T07:59:59;3.00;;;2.70;;
21426;SDS011;10874;49.452;11.050;2023-12-20T08:02:26;3.07;;;2.63;;
21426;SDS011;10874;49.452;11.050;2023-12-20T08:04:52;2.90;;;2.60;;
21426;SDS011;10874;49.452;11.050;2023-12-20T08:07:19;3.73;;;2.63;;
21426;SDS011;10874;49.452;11.050;2023-12-20T08:09:46;3.50;;;2.50;;
21426;SDS011;10874;49.452;11.050;2023-12-20T08:12:13;3.10;;;2.80;;
21426;SDS011;10874;49.452;11.050;2023-12-20T08:14:40;2.77;;;2.40;;
21426;SDS011;10874;49.452;11.050;2023-12-20T08:17:06;2.90;;;2.47;;
21426;SDS011;10874;49.452;11.050;2023-12-20T08:19:33;2.60;;;2.40;;
21426;SDS011;10874;49.452;11.050;2023-12-20T08:22:00;3.63;;;3.00;;
21426;SDS011;10874;49.452;11.050;2023-12-20T08:24:27;4.77;;;2.93;;
21426;SDS011;10874;49.452;11.050;2023-12-20T08:26:54;4.23;;;3.13;;
21426;SDS011;10874;49.452;11.050;2023-12-20T08:29:20;3.27;;;2.97;;
21426;SDS011;10874;49.452;11.050;2023-12-20T08:31:51;4.80;;;3.90;;
21426;SDS011;10874;49.452;11.050;2023-12-20T08:34:18;3.13;;;2.80;;
21426;SDS011;10874;49.452;11.050;2023-12-20T08:36:45;3.10;;;2.80;;
21426;SDS011;10874;49.452;11.050;2023-12-20T08:39:12;2.70;;;2.50;;
21426;SDS011;10874;49.452;11.050;2023-12-20T08:41:39;2.67;;;2.27;;
21426;SDS011;10874;49.452;11.050;2023-12-20T08:44:06;2.80;;;2.53;;
21426;SDS011;10874;49.452;11.050;2023-12-20T08:46:32;3.00;;;2.43;;
21426;SDS011;10874;49.452;11.050;2023-12-20T08:48:59;2.63;;;2.37;;
21426;SDS011;10874;49.452;11.050;2023-12-20T08:51:27;3.53;;;2.30;;
21426;SDS011;10874;49.452;11.050;2023-12-20T08:53:54;2.73;;;2.43;;
21426;SDS011;10874;49.452;11.050;2023-12-20T08:56:21;2.77;;;2.27;;
21426;SDS011;10874;49.452;11.050;2023-12-20T08:58:48;2.40;;;2.20;;
21426;SDS011;10874;49.452;11.050;2023-12-20T09:01:15;2.50;;;2.30;;
21426;SDS011;10874;49.452;11.050;2023-12-20T09:03:42;3.43;;;2.37;;
21426;SDS011;10874;49.452;11.050;2023-12-20T09:06:10;3.37;;;2.10;;
21426;SDS011;10874;49.452;11.050;2023-12-20T09:08:37;2.57;;;2.00;;
21426;SDS011;10874;49.452;11.050;2023-12-20T09:11:03;2.87;;;2.67;;
21426;SDS011;10874;49.452;11.050;2023-12-20T09:13:31;3.00;;;2.00;;
21426;SDS011;10874;49.452;11.050;2023-12-20T09:15:58;2.60;;;2.40;;
21426;SDS011;10874;49.452;11.050;2023-12-20T09:18:26;3.07;;;2.30;;
21426;SDS011;10874;49.452;11.050;2023-12-20T09:20:53;2.50;;;2.23;;
21426;SDS011;10874;49.452;11.050;2023-12-20T09:23:19;2.87;;;2.20;;
21426;SDS011;10874;49.452;11.050;2023-12-20T09:25:46;2.67;;;2.47;;
21426;SDS011;10874;49.452;11.050;2023-12-20T09:28:13;2.83;;;2.40;;
21426;SDS011;10874;49.452;11.050;2023-12-20T09:30:40;4.33;;;3.03;;
21426;SDS011;10874;49.452;11.050;2023-12-20T09:33:07;4.63;;;3.80;;
21426;SDS011;10874;49.452;11.050;2023-12-20T09:35:35;5.37;;;2.80;;
21426;SDS011;10874;49.452;11.050;2023-12-20T09:38:02;2.93;;;2.70;;
21426;SDS011;10874;49.452;11.050;2023-12-20T09:40:29;2.67;;;2.23;;
21426;SDS011;10874;49.452;11.050;2023-12-20T09:42:58;2.20;;;2.00;;
21426;SDS011;10874;49.452;11.050;2023-12-20T09:45:25;2.50;;;1.70;;
21426;SDS011;10874;49.452;11.050;2023-12-20T09:47:52;2.53;;;2.17;;
21426;SDS011;10874;49.452;11.050;2023-12-20T09:50:19;3.33;;;2.00;;
21426;SDS011;10874;49.452;11.050;2023-12-20T09:52:49;2.80;;;1.63;;
21426;SDS011;10874;49.452;11.050;2023-12-20T09:55:19;2.70;;;1.80;;
21426;SDS011;10874;49.452;11.050;2023-12-20T09:57:47;2.07;;;1.70;;
21426;SDS011;10874;49.452;11.050;2023-12-20T10:00:15;2.73;;;1.70;;
21426;SDS011;10874;49.452;11.050;2023-12-20T10:02:44;2.67;;;1.60;;
21426;SDS011;10874;49.452;11.050;2023-12-20T10:05:15;2.57;;;1.90;;
21426;SDS011;10874;49.452;11.050;2023-12-20T10:07:42;2.30;;;1.57;;
21426;SDS011;10874;49.452;11.050;2023-12-20T10:10:10;1.80;;;1.30;;
21426;SDS011;10874;49.452;11.050;2023-12-20T10:12:37;4.73;;;1.73;;
21426;SDS011;10874;49.452;11.050;2023-12-20T10:15:04;4.50;;;1.80;;
21426;SDS011;10874;49.452;11.050;2023-12-20T10:17:31;3.57;;;1.60;;
21426;SDS011;10874;49.452;11.050;2023-12-20T10:19:58;3.00;;;2.23;;
21426;SDS011;10874;49.452;11.050;2023-12-20T10:22:25;5.43;;;2.03;;
21426;SDS011;10874;49.452;11.050;2023-12-20T10:24:53;3.80;;;2.37;;
21426;SDS011;10874;49.452;11.050;2023-12-20T10:27:20;3.10;;;2.00;;
21426;SDS011;10874;49.452;11.050;2023-12-20T10:29:46;3.93;;;1.70;;
21426;SDS011;10874;49.452;11.050;2023-12-20T10:32:23;3.03;;;1.90;;
21426;SDS011;10874;49.452;11.050;2023-12-20T10:34:51;2.43;;;1.40;;
21426;SDS011;10874;49.452;11.050;2023-12-20T10:37:18;4.13;;;2.13;;
21426;SDS011;10874;49.452;11.050;2023-12-20T10:39:52;4.00;;;2.00;;
21426;SDS011;10874;49.452;11.050;2023-12-20T10:42:24;3.27;;;2.20;;
21426;SDS011;10874;49.452;11.050;2023-12-20T10:44:52;3.80;;;2.03;;
21426;SDS011;10874;49.452;11.050;2023-12-20T10:47:20;3.10;;;2.23;;
21426;SDS011;10874;49.452;11.050;2023-12-20T10:49:47;3.33;;;1.30;;
21426;SDS011;10874;49.452;11.050;2023-12-20T10:52:14;4.60;;;1.70;;
21426;SDS011;10874;49.452;11.050;2023-12-20T10:54:44;3.60;;;1.70;;
21426;SDS011;10874;49.452;11.050;2023-12-20T10:57:11;2.90;;;1.67;;
21426;SDS011;10874;49.452;11.050;2023-12-20T10:59:38;4.97;;;1.70;;
21426;SDS011;10874;49.452;11.050;2023-12-20T11:02:06;4.13;;;2.10;;
21426;SDS011;10874;49.452;11.050;2023-12-20T11:04:37;4.60;;;1.70;;
21426;SDS011;10874;49.452;11.050;2023-12-20T11:07:08;2.57;;;1.77;;
21426;SDS011;10874;49.452;11.050;2023-12-20T11:09:43;4.03;;;1.70;;
21426;SDS011;10874;49.452;11.050;2023-12-20T11:12:23;4.03;;;1.90;;
21426;SDS011;10874;49.452;11.050;2023-12-20T11:14:53;5.17;;;2.13;;
21426;SDS011;10874;49.452;11.050;2023-12-20T11:17:22;4.50;;;2.20;;
21426;SDS011;10874;49.452;11.050;2023-12-20T11:22:19;3.20;;;1.97;;
21426;SDS011;10874;49.452;11.050;2023-12-20T11:24:47;4.93;;;2.00;;
21426;SDS011;10874;49.452;11.050;2023-12-20T11:27:14;2.30;;;1.73;;
21426;SDS011;10874;49.452;11.050;2023-12-20T11:29:41;4.93;;;1.70;;
21426;SDS011;10874;49.452;11.050;2023-12-20T11:35:00;3.00;;;1.70;;
21426;SDS011;10874;49.452;11.050;2023-12-20T11:37:31;7.30;;;1.87;;
21426;SDS011;10874;49.452;11.050;2023-12-20T11:40:05;4.20;;;2.00;;
21426;SDS011;10874;49.452;11.050;2023-12-20T11:42:33;3.43;;;1.93;;
21426;SDS011;10874;49.452;11.050;2023-12-20T11:45:01;3.37;;;2.07;;
21426;SDS011;10874;49.452;11.050;2023-12-20T11:47:30;5.57;;;2.00;;
21426;SDS011;10874;49.452;11.050;2023-12-20T11:49:57;4.40;;;1.73;;
21426;SDS011;10874;49.452;11.050;2023-12-20T11:52:27;3.10;;;1.90;;
21426;SDS011;10874;49.452;11.050;2023-12-20T11:54:54;4.60;;;1.70;;
21426;SDS011;10874;49.452;11.050;2023-12-20T11:57:20;5.33;;;2.17;;
21426;SDS011;10874;49.452;11.050;2023-12-20T11:59:47;4.57;;;1.80;;
21426;SDS011;10874;49.452;11.050;2023-12-20T12:02:14;3.93;;;1.90;;
21426;SDS011;10874;49.452;11.050;2023-12-20T12:04:41;4.90;;;2.00;;
21426;SDS011;10874;49.452;11.050;2023-12-20T12:07:08;3.20;;;1.90;;
21426;SDS011;10874;49.452;11.050;2023-12-20T12:09:35;4.00;;;2.10;;
21426;SDS011;10874;49.452;11.050;2023-12-20T12:12:02;5.37;;;2.07;;
21426;SDS011;10874;49.452;11.050;2023-12-20T12:14:29;3.80;;;2.20;;
21426;SDS011;10874;49.452;11.050;2023-12-20T12:16:56;3.97;;;2.47;;
21426;SDS011;10874;49.452;11.050;2023-12-20T12:19:23;7.20;;;2.40;;
21426;SDS011;10874;49.452;11.050;2023-12-20T12:21:51;3.73;;;2.10;;
21426;SDS011;10874;49.452;11.050;2023-12-20T12:24:20;4.00;;;2.43;;
21426;SDS011;10874;49.452;11.050;2023-12-20T12:26:50;3.00;;;1.90;;
21426;SDS011;10874;49.452;11.050;2023-12-20T12:29:18;4.57;;;2.47;;
21426;SDS011;10874;49.452;11.050;2023-12-20T12:31:45;3.20;;;2.23;;
21426;SDS011;10874;49.452;11.050;2023-12-20T12:34:12;3.77;;;1.80;;
21426;SDS011;10874;49.452;11.050;2023-12-20T12:36:39;5.83;;;2.17;;
21426;SDS011;10874;49.452;11.050;2023-12-20T12:39:06;7.17;;;2.33;;
21426;SDS011;10874;49.452;11.050;2023-12-20T12:41:32;4.53;;;2.00;;
21426;SDS011;10874;49.452;11.050;2023-12-20T12:43:59;8.67;;;2.60;;
21426;SDS011;10874;49.452;11.050;2023-12-20T12:46:37;3.80;;;2.07;;
21426;SDS011;10874;49.452;11.050;2023-12-20T12:49:05;3.50;;;2.27;;
21426;SDS011;10874;49.452;11.050;2023-12-20T12:51:31;7.03;;;3.60;;
21426;SDS011;10874;49.452;11.050;2023-12-20T12:53:58;37.93;;;21.00;;
21426;SDS011;10874;49.452;11.050;2023-12-20T12:56:25;33.57;;;20.13;;
21426;SDS011;10874;49.452;11.050;2023-12-20T12:58:52;13.63;;;7.23;;
21426;SDS011;10874;49.452;11.050;2023-12-20T13:01:19;3.37;;;2.07;;
21426;SDS011;10874;49.452;11.050;2023-12-20T13:03:45;2.10;;;1.90;;
21426;SDS011;10874;49.452;11.050;2023-12-20T13:06:13;4.77;;;2.30;;
21426;SDS011;10874;49.452;11.050;2023-12-20T13:08:40;3.90;;;2.07;;
21426;SDS011;10874;49.452;11.050;2023-12-20T13:11:07;3.20;;;2.10;;
21426;SDS011;10874;49.452;11.050;2023-12-20T13:13:33;3.53;;;1.80;;
21426;SDS011;10874;49.452;11.050;2023-12-20T13:16:00;2.67;;;2.03;;
21426;SDS011;10874;49.452;11.050;2023-12-20T13:18:27;3.63;;;1.70;;
21426;SDS011;10874;49.452;11.050;2023-12-20T13:20:55;2.30;;;1.60;;
21426;SDS011;10874;49.452;11.050;2023-12-20T13:23:22;2.30;;;1.60;;
21426;SDS011;10874;49.452;11.050;2023-12-20T13:25:49;4.23;;;2.00;;
21426;SDS011;10874;49.452;11.050;2023-12-20T13:28:15;5.27;;;2.40;;
21426;SDS011;10874;49.452;11.050;2023-12-20T13:30:42;3.03;;;2.20;;
21426;SDS011;10874;49.452;11.050;2023-12-20T13:33:10;2.67;;;1.60;;
21426;SDS011;10874;49.452;11.050;2023-12-20T13:35:37;4.87;;;1.70;;
21426;SDS011;10874;49.452;11.050;2023-12-20T13:38:04;2.73;;;1.60;;
21426;SDS011;10874;49.452;11.050;2023-12-20T13:40:31;5.50;;;2.23;;
21426;SDS011;10874;49.452;11.050;2023-12-20T13:42:58;2.57;;;1.80;;
21426;SDS011;10874;49.452;11.050;2023-12-20T13:45:25;3.53;;;1.67;;
21426;SDS011;10874;49.452;11.050;2023-12-20T13:47:52;3.30;;;2.20;;
21426;SDS011;10874;49.452;11.050;2023-12-20T13:50:19;3.60;;;1.93;;
21426;SDS011;10874;49.452;11.050;2023-12-20T13:52:46;5.13;;;1.80;;
21426;SDS011;10874;49.452;11.050;2023-12-20T13:55:13;3.87;;;1.97;;
21426;SDS011;10874;49.452;11.050;2023-12-20T13:57:40;2.37;;;2.10;;
21426;SDS011;10874;49.452;11.050;2023-12-20T14:00:21;4.27;;;2.20;;
21426;SDS011;10874;49.452;11.050;2023-12-20T14:02:48;2.63;;;1.73;;
21426;SDS011;10874;49.452;11.050;2023-12-20T14:05:16;1.67;;;1.53;;
21426;SDS011;10874;49.452;11.050;2023-12-20T14:07:45;5.47;;;1.50;;
21426;SDS011;10874;49.452;11.050;2023-12-20T14:10:13;4.80;;;2.03;;
21426;SDS011;10874;49.452;11.050;2023-12-20T14:12:40;4.97;;;1.50;;
21426;SDS011;10874;49.452;11.050;2023-12-20T14:15:07;4.87;;;2.13;;
21426;SDS011;10874;49.452;11.050;2023-12-20T14:17:38;4.33;;;2.33;;
21426;SDS011;10874;49.452;11.050;2023-12-20T14:20:05;4.60;;;2.43;;
21426;SDS011;10874;49.452;11.050;2023-12-20T14:22:33;6.07;;;1.80;;
21426;SDS011;10874;49.452;11.050;2023-12-20T14:25:00;3.67;;;1.50;;
21426;SDS011;10874;49.452;11.050;2023-12-20T14:27:27;3.47;;;1.90;;
21426;SDS011;10874;49.452;11.050;2023-12-20T14:29:54;4.97;;;2.00;;
21426;SDS011;10874;49.452;11.050;2023-12-20T14:32:21;2.83;;;1.90;;
21426;SDS011;10874;49.452;11.050;2023-12-20T14:34:48;3.33;;;1.50;;
21426;SDS011;10874;49.452;11.050;2023-12-20T14:37:15;3.23;;;1.60;;
21426;SDS011;10874;49.452;11.050;2023-12-20T14:39:43;3.13;;;1.50;;